Terminal Aerodrome Forecast
Issued by NWS

Home | Current Version | Previous Version | Text Only | Print | Product List | Glossary On
Versions: 1 2 3 4 5 6 7 8 9 10 11 12 13 14 15 16 17
504
FTUS42 TJSJ 220527
TAFJBQ
TAF
TJBQ 220527Z 2206/2306 10011G20KT P6SM SCT024 BKN030 OVC045
     FM220800 09013G20KT P6SM FEW022 SCT035 SCT070
     FM221300 09018G28KT P6SM FEW025 SCT050
     FM221600 08022G30KT P6SM FEW030
     FM222200 09014G22KT P6SM VCSH SCT028 SCT035 SCT060
      AMD NOT SKED TIL 221100=

USA.gov is the U.S. government's official web portal to all federal, state and local government web resources and services.